sensor_id;sensor_type;location;lat;lon;timestamp;P1;durP1;ratioP1;P2;durP2;ratioP2
18144;SDS011;14857;41.200;-8.326;2022-11-12T00:00:07;9.23;;;4.28;;
18144;SDS011;14857;41.200;-8.326;2022-11-12T00:02:55;13.73;;;4.80;;
18144;SDS011;14857;41.200;-8.326;2022-11-12T00:05:47;10.07;;;5.25;;
18144;SDS011;14857;41.200;-8.326;2022-11-12T00:08:38;14.07;;;4.30;;
18144;SDS011;14857;41.200;-8.326;2022-11-12T00:11:27;9.73;;;4.10;;
18144;SDS011;14857;41.200;-8.326;2022-11-12T00:14:25;8.20;;;4.82;;
18144;SDS011;14857;41.200;-8.326;2022-11-12T00:17:12;11.00;;;4.95;;
18144;SDS011;14857;41.200;-8.326;2022-11-12T00:19:59;8.40;;;4.15;;
18144;SDS011;14857;41.200;-8.326;2022-11-12T00:22:48;7.40;;;4.38;;
18144;SDS011;14857;41.200;-8.326;2022-11-12T00:25:35;7.88;;;4.18;;
18144;SDS011;14857;41.200;-8.326;2022-11-12T00:28:22;8.02;;;4.35;;
18144;SDS011;14857;41.200;-8.326;2022-11-12T00:31:11;9.63;;;4.53;;
18144;SDS011;14857;41.200;-8.326;2022-11-12T00:34:01;10.75;;;4.65;;
18144;SDS011;14857;41.200;-8.326;2022-11-12T00:36:49;9.38;;;4.95;;
18144;SDS011;14857;41.200;-8.326;2022-11-12T00:39:37;7.78;;;4.22;;
18144;SDS011;14857;41.200;-8.326;2022-11-12T00:42:24;10.63;;;4.07;;
18144;SDS011;14857;41.200;-8.326;2022-11-12T00:45:12;10.25;;;4.35;;
18144;SDS011;14857;41.200;-8.326;2022-11-12T00:47:59;9.50;;;4.20;;
18144;SDS011;14857;41.200;-8.326;2022-11-12T00:50:46;7.30;;;3.60;;
18144;SDS011;14857;41.200;-8.326;2022-11-12T00:53:33;6.80;;;3.55;;
18144;SDS011;14857;41.200;-8.326;2022-11-12T00:56:21;7.68;;;4.07;;
18144;SDS011;14857;41.200;-8.326;2022-11-12T00:59:08;10.73;;;3.78;;
18144;SDS011;14857;41.200;-8.326;2022-11-12T01:01:55;7.53;;;4.53;;
18144;SDS011;14857;41.200;-8.326;2022-11-12T01:04:42;7.68;;;4.43;;
18144;SDS011;14857;41.200;-8.326;2022-11-12T01:07:29;10.25;;;4.43;;
18144;SDS011;14857;41.200;-8.326;2022-11-12T01:10:16;9.93;;;4.18;;
18144;SDS011;14857;41.200;-8.326;2022-11-12T01:13:05;8.38;;;4.15;;
18144;SDS011;14857;41.200;-8.326;2022-11-12T01:15:52;7.53;;;3.95;;
18144;SDS011;14857;41.200;-8.326;2022-11-12T01:18:40;10.23;;;4.72;;
18144;SDS011;14857;41.200;-8.326;2022-11-12T01:21:29;8.70;;;4.93;;
18144;SDS011;14857;41.200;-8.326;2022-11-12T01:24:18;12.45;;;4.80;;
18144;SDS011;14857;41.200;-8.326;2022-11-12T01:27:06;10.05;;;4.22;;
18144;SDS011;14857;41.200;-8.326;2022-11-12T01:29:57;10.55;;;3.42;;
18144;SDS011;14857;41.200;-8.326;2022-11-12T01:32:44;7.03;;;3.60;;
18144;SDS011;14857;41.200;-8.326;2022-11-12T01:35:32;7.15;;;3.47;;
18144;SDS011;14857;41.200;-8.326;2022-11-12T01:38:19;7.97;;;4.40;;
18144;SDS011;14857;41.200;-8.326;2022-11-12T01:41:08;6.05;;;3.53;;
18144;SDS011;14857;41.200;-8.326;2022-11-12T01:44:09;9.68;;;4.43;;
18144;SDS011;14857;41.200;-8.326;2022-11-12T01:47:01;10.07;;;3.97;;
18144;SDS011;14857;41.200;-8.326;2022-11-12T01:49:54;11.43;;;4.50;;
18144;SDS011;14857;41.200;-8.326;2022-11-12T01:52:46;17.38;;;4.65;;
18144;SDS011;14857;41.200;-8.326;2022-11-12T01:55:36;7.03;;;3.47;;
18144;SDS011;14857;41.200;-8.326;2022-11-12T01:58:24;9.82;;;4.00;;
18144;SDS011;14857;41.200;-8.326;2022-11-12T02:01:15;7.70;;;4.10;;
18144;SDS011;14857;41.200;-8.326;2022-11-12T02:04:03;15.27;;;4.60;;
18144;SDS011;14857;41.200;-8.326;2022-11-12T02:06:51;12.40;;;4.70;;
18144;SDS011;14857;41.200;-8.326;2022-11-12T02:09:40;9.90;;;5.00;;
18144;SDS011;14857;41.200;-8.326;2022-11-12T02:12:28;10.18;;;4.43;;
18144;SDS011;14857;41.200;-8.326;2022-11-12T02:15:32;7.55;;;4.18;;
18144;SDS011;14857;41.200;-8.326;2022-11-12T02:18:20;10.00;;;4.68;;
18144;SDS011;14857;41.200;-8.326;2022-11-12T02:21:08;11.68;;;4.85;;
18144;SDS011;14857;41.200;-8.326;2022-11-12T02:24:00;8.55;;;4.72;;
18144;SDS011;14857;41.200;-8.326;2022-11-12T02:26:49;12.20;;;5.40;;
18144;SDS011;14857;41.200;-8.326;2022-11-12T02:29:39;12.38;;;4.13;;
18144;SDS011;14857;41.200;-8.326;2022-11-12T02:32:31;7.70;;;3.78;;
18144;SDS011;14857;41.200;-8.326;2022-11-12T02:35:18;8.27;;;4.47;;
18144;SDS011;14857;41.200;-8.326;2022-11-12T02:38:05;9.23;;;4.47;;
18144;SDS011;14857;41.200;-8.326;2022-11-12T02:40:54;9.55;;;4.75;;
18144;SDS011;14857;41.200;-8.326;2022-11-12T02:43:41;8.38;;;3.30;;
18144;SDS011;14857;41.200;-8.326;2022-11-12T02:46:29;8.70;;;3.85;;
18144;SDS011;14857;41.200;-8.326;2022-11-12T02:49:15;10.60;;;3.75;;
18144;SDS011;14857;41.200;-8.326;2022-11-12T02:52:02;7.35;;;4.15;;
18144;SDS011;14857;41.200;-8.326;2022-11-12T02:54:50;8.55;;;4.35;;
18144;SDS011;14857;41.200;-8.326;2022-11-12T02:57:38;7.88;;;4.28;;
18144;SDS011;14857;41.200;-8.326;2022-11-12T03:00:26;8.32;;;4.20;;
18144;SDS011;14857;41.200;-8.326;2022-11-12T03:03:13;11.02;;;4.75;;
18144;SDS011;14857;41.200;-8.326;2022-11-12T03:06:00;9.38;;;4.45;;
18144;SDS011;14857;41.200;-8.326;2022-11-12T03:08:47;13.18;;;4.30;;
18144;SDS011;14857;41.200;-8.326;2022-11-12T03:11:34;10.05;;;4.13;;
18144;SDS011;14857;41.200;-8.326;2022-11-12T03:14:23;7.25;;;4.28;;
18144;SDS011;14857;41.200;-8.326;2022-11-12T03:17:10;15.10;;;4.60;;
18144;SDS011;14857;41.200;-8.326;2022-11-12T03:19:57;9.93;;;4.65;;
18144;SDS011;14857;41.200;-8.326;2022-11-12T03:22:54;10.90;;;4.85;;
18144;SDS011;14857;41.200;-8.326;2022-11-12T03:25:42;10.65;;;4.50;;
18144;SDS011;14857;41.200;-8.326;2022-11-12T03:28:29;6.10;;;3.53;;
18144;SDS011;14857;41.200;-8.326;2022-11-12T03:31:18;11.77;;;4.18;;
18144;SDS011;14857;41.200;-8.326;2022-11-12T03:34:05;10.35;;;4.05;;
18144;SDS011;14857;41.200;-8.326;2022-11-12T03:36:53;14.77;;;4.30;;
18144;SDS011;14857;41.200;-8.326;2022-11-12T03:39:40;8.52;;;4.10;;
18144;SDS011;14857;41.200;-8.326;2022-11-12T03:42:27;7.10;;;3.70;;
18144;SDS011;14857;41.200;-8.326;2022-11-12T03:45:14;9.38;;;4.28;;
18144;SDS011;14857;41.200;-8.326;2022-11-12T03:48:03;10.10;;;4.80;;
18144;SDS011;14857;41.200;-8.326;2022-11-12T03:50:51;11.73;;;3.85;;
18144;SDS011;14857;41.200;-8.326;2022-11-12T03:53:38;13.77;;;4.72;;
18144;SDS011;14857;41.200;-8.326;2022-11-12T03:56:25;10.70;;;4.35;;
18144;SDS011;14857;41.200;-8.326;2022-11-12T03:59:12;7.18;;;4.32;;
18144;SDS011;14857;41.200;-8.326;2022-11-12T04:01:59;9.93;;;4.68;;
18144;SDS011;14857;41.200;-8.326;2022-11-12T04:04:47;9.57;;;4.40;;
18144;SDS011;14857;41.200;-8.326;2022-11-12T04:07:56;7.93;;;4.38;;
18144;SDS011;14857;41.200;-8.326;2022-11-12T04:11:03;14.88;;;5.25;;
18144;SDS011;14857;41.200;-8.326;2022-11-12T04:13:51;11.55;;;5.03;;
18144;SDS011;14857;41.200;-8.326;2022-11-12T04:16:38;6.63;;;3.00;;
18144;SDS011;14857;41.200;-8.326;2022-11-12T04:19:42;6.55;;;3.85;;
18144;SDS011;14857;41.200;-8.326;2022-11-12T04:22:50;11.20;;;4.13;;
18144;SDS011;14857;41.200;-8.326;2022-11-12T04:25:38;7.13;;;3.90;;
18144;SDS011;14857;41.200;-8.326;2022-11-12T04:28:42;11.32;;;3.95;;
18144;SDS011;14857;41.200;-8.326;2022-11-12T04:31:50;11.25;;;4.70;;
18144;SDS011;14857;41.200;-8.326;2022-11-12T04:34:36;7.65;;;4.68;;
18144;SDS011;14857;41.200;-8.326;2022-11-12T04:37:24;8.00;;;4.20;;
18144;SDS011;14857;41.200;-8.326;2022-11-12T04:40:15;13.00;;;4.30;;
18144;SDS011;14857;41.200;-8.326;2022-11-12T04:43:20;16.90;;;4.43;;
18144;SDS011;14857;41.200;-8.326;2022-11-12T04:46:24;5.88;;;4.10;;
18144;SDS011;14857;41.200;-8.326;2022-11-12T04:49:11;8.60;;;4.50;;
18144;SDS011;14857;41.200;-8.326;2022-11-12T04:51:58;10.50;;;4.85;;
18144;SDS011;14857;41.200;-8.326;2022-11-12T04:54:51;8.07;;;4.30;;
18144;SDS011;14857;41.200;-8.326;2022-11-12T04:57:40;14.90;;;4.72;;
18144;SDS011;14857;41.200;-8.326;2022-11-12T05:03:29;23.35;;;8.48;;
18144;SDS011;14857;41.200;-8.326;2022-11-12T05:06:17;5.40;;;3.58;;
18144;SDS011;14857;41.200;-8.326;2022-11-12T05:09:22;10.15;;;4.60;;
18144;SDS011;14857;41.200;-8.326;2022-11-12T05:12:10;10.93;;;4.65;;
18144;SDS011;14857;41.200;-8.326;2022-11-12T05:14:59;8.77;;;3.83;;
18144;SDS011;14857;41.200;-8.326;2022-11-12T05:17:46;8.68;;;3.63;;
18144;SDS011;14857;41.200;-8.326;2022-11-12T05:20:33;8.68;;;3.53;;
18144;SDS011;14857;41.200;-8.326;2022-11-12T05:23:20;7.93;;;3.67;;
18144;SDS011;14857;41.200;-8.326;2022-11-12T05:26:07;9.73;;;3.53;;
18144;SDS011;14857;41.200;-8.326;2022-11-12T05:28:54;9.35;;;4.07;;
18144;SDS011;14857;41.200;-8.326;2022-11-12T05:31:43;11.52;;;3.88;;
18144;SDS011;14857;41.200;-8.326;2022-11-12T05:34:30;5.57;;;3.30;;
18144;SDS011;14857;41.200;-8.326;2022-11-12T05:37:17;8.98;;;4.03;;
18144;SDS011;14857;41.200;-8.326;2022-11-12T05:40:05;9.50;;;5.05;;
18144;SDS011;14857;41.200;-8.326;2022-11-12T05:42:52;13.20;;;5.10;;
18144;SDS011;14857;41.200;-8.326;2022-11-12T05:45:41;13.45;;;3.65;;
18144;SDS011;14857;41.200;-8.326;2022-11-12T05:48:30;12.55;;;4.10;;
18144;SDS011;14857;41.200;-8.326;2022-11-12T05:51:16;8.80;;;4.57;;
18144;SDS011;14857;41.200;-8.326;2022-11-12T05:54:03;10.82;;;4.15;;
18144;SDS011;14857;41.200;-8.326;2022-11-12T05:56:50;10.77;;;3.03;;
18144;SDS011;14857;41.200;-8.326;2022-11-12T05:59:38;7.40;;;4.07;;
18144;SDS011;14857;41.200;-8.326;2022-11-12T06:02:25;7.82;;;4.07;;
18144;SDS011;14857;41.200;-8.326;2022-11-12T06:05:13;7.25;;;4.32;;
18144;SDS011;14857;41.200;-8.326;2022-11-12T06:08:01;11.25;;;5.00;;
18144;SDS011;14857;41.200;-8.326;2022-11-12T06:10:49;11.52;;;4.10;;
18144;SDS011;14857;41.200;-8.326;2022-11-12T06:13:37;10.55;;;4.18;;
18144;SDS011;14857;41.200;-8.326;2022-11-12T06:16:24;8.57;;;4.63;;
18144;SDS011;14857;41.200;-8.326;2022-11-12T06:19:12;10.07;;;4.55;;
18144;SDS011;14857;41.200;-8.326;2022-11-12T06:22:00;6.32;;;3.35;;
18144;SDS011;14857;41.200;-8.326;2022-11-12T06:24:47;9.10;;;4.25;;
18144;SDS011;14857;41.200;-8.326;2022-11-12T06:27:34;7.00;;;3.30;;
18144;SDS011;14857;41.200;-8.326;2022-11-12T06:30:21;10.75;;;4.28;;
18144;SDS011;14857;41.200;-8.326;2022-11-12T06:33:10;9.35;;;4.40;;
18144;SDS011;14857;41.200;-8.326;2022-11-12T06:35:57;10.02;;;4.25;;
18144;SDS011;14857;41.200;-8.326;2022-11-12T06:38:48;6.25;;;3.33;;
18144;SDS011;14857;41.200;-8.326;2022-11-12T06:41:36;11.65;;;3.78;;
18144;SDS011;14857;41.200;-8.326;2022-11-12T06:44:22;8.15;;;4.03;;
18144;SDS011;14857;41.200;-8.326;2022-11-12T06:47:09;7.45;;;4.00;;
18144;SDS011;14857;41.200;-8.326;2022-11-12T06:49:56;9.52;;;3.83;;
18144;SDS011;14857;41.200;-8.326;2022-11-12T06:52:43;13.15;;;4.82;;
18144;SDS011;14857;41.200;-8.326;2022-11-12T06:55:32;12.10;;;5.25;;
18144;SDS011;14857;41.200;-8.326;2022-11-12T06:58:19;9.02;;;4.22;;
18144;SDS011;14857;41.200;-8.326;2022-11-12T07:01:07;7.80;;;3.75;;
18144;SDS011;14857;41.200;-8.326;2022-11-12T07:03:56;6.78;;;3.50;;
18144;SDS011;14857;41.200;-8.326;2022-11-12T07:06:43;9.55;;;3.95;;
18144;SDS011;14857;41.200;-8.326;2022-11-12T07:09:30;14.65;;;4.03;;
18144;SDS011;14857;41.200;-8.326;2022-11-12T07:12:18;6.10;;;4.00;;
18144;SDS011;14857;41.200;-8.326;2022-11-12T07:15:05;13.07;;;4.28;;
18144;SDS011;14857;41.200;-8.326;2022-11-12T07:17:52;14.45;;;4.22;;
18144;SDS011;14857;41.200;-8.326;2022-11-12T07:20:39;8.32;;;3.45;;
18144;SDS011;14857;41.200;-8.326;2022-11-12T07:23:27;4.60;;;2.58;;
18144;SDS011;14857;41.200;-8.326;2022-11-12T07:26:16;11.35;;;3.83;;
18144;SDS011;14857;41.200;-8.326;2022-11-12T07:29:07;8.20;;;3.60;;
18144;SDS011;14857;41.200;-8.326;2022-11-12T07:31:54;10.52;;;3.40;;
18144;SDS011;14857;41.200;-8.326;2022-11-12T07:34:41;9.00;;;3.53;;
18144;SDS011;14857;41.200;-8.326;2022-11-12T07:37:28;12.45;;;4.22;;
18144;SDS011;14857;41.200;-8.326;2022-11-12T07:40:14;12.23;;;3.88;;
18144;SDS011;14857;41.200;-8.326;2022-11-12T07:43:02;10.05;;;3.90;;
18144;SDS011;14857;41.200;-8.326;2022-11-12T07:45:50;8.57;;;3.35;;
18144;SDS011;14857;41.200;-8.326;2022-11-12T07:48:37;6.22;;;3.92;;
18144;SDS011;14857;41.200;-8.326;2022-11-12T07:51:25;8.70;;;3.63;;
18144;SDS011;14857;41.200;-8.326;2022-11-12T07:54:13;6.70;;;3.83;;
18144;SDS011;14857;41.200;-8.326;2022-11-12T07:57:00;9.27;;;4.60;;
18144;SDS011;14857;41.200;-8.326;2022-11-12T07:59:48;10.77;;;4.50;;
18144;SDS011;14857;41.200;-8.326;2022-11-12T08:02:37;11.30;;;4.35;;
18144;SDS011;14857;41.200;-8.326;2022-11-12T08:05:24;7.03;;;3.83;;
18144;SDS011;14857;41.200;-8.326;2022-11-12T08:08:11;9.05;;;4.28;;
18144;SDS011;14857;41.200;-8.326;2022-11-12T08:10:59;10.05;;;4.63;;
18144;SDS011;14857;41.200;-8.326;2022-11-12T08:13:46;11.52;;;4.82;;
18144;SDS011;14857;41.200;-8.326;2022-11-12T08:16:33;13.40;;;4.93;;
18144;SDS011;14857;41.200;-8.326;2022-11-12T08:19:22;11.00;;;4.22;;
18144;SDS011;14857;41.200;-8.326;2022-11-12T08:22:09;12.43;;;4.97;;
18144;SDS011;14857;41.200;-8.326;2022-11-12T08:24:56;6.80;;;3.53;;
18144;SDS011;14857;41.200;-8.326;2022-11-12T08:27:43;8.43;;;4.65;;
18144;SDS011;14857;41.200;-8.326;2022-11-12T08:30:29;13.75;;;5.18;;
18144;SDS011;14857;41.200;-8.326;2022-11-12T08:33:16;11.18;;;6.28;;
18144;SDS011;14857;41.200;-8.326;2022-11-12T08:36:06;13.48;;;5.57;;
18144;SDS011;14857;41.200;-8.326;2022-11-12T08:38:54;14.25;;;5.57;;
18144;SDS011;14857;41.200;-8.326;2022-11-12T08:41:41;16.10;;;6.18;;
18144;SDS011;14857;41.200;-8.326;2022-11-12T08:44:28;7.80;;;4.65;;
18144;SDS011;14857;41.200;-8.326;2022-11-12T08:47:15;15.32;;;4.45;;
18144;SDS011;14857;41.200;-8.326;2022-11-12T08:50:02;9.80;;;4.53;;
18144;SDS011;14857;41.200;-8.326;2022-11-12T08:52:51;13.43;;;4.43;;
18144;SDS011;14857;41.200;-8.326;2022-11-12T08:55:38;6.75;;;3.70;;
18144;SDS011;14857;41.200;-8.326;2022-11-12T08:58:25;8.82;;;4.35;;
18144;SDS011;14857;41.200;-8.326;2022-11-12T09:01:13;7.90;;;3.90;;
18144;SDS011;14857;41.200;-8.326;2022-11-12T09:04:01;12.55;;;4.13;;
18144;SDS011;14857;41.200;-8.326;2022-11-12T09:06:48;8.25;;;3.65;;
18144;SDS011;14857;41.200;-8.326;2022-11-12T09:09:39;5.22;;;3.05;;
18144;SDS011;14857;41.200;-8.326;2022-11-12T09:12:27;10.40;;;3.00;;
18144;SDS011;14857;41.200;-8.326;2022-11-12T09:15:14;6.75;;;3.25;;
18144;SDS011;14857;41.200;-8.326;2022-11-12T09:18:21;9.88;;;2.70;;
18144;SDS011;14857;41.200;-8.326;2022-11-12T09:21:09;5.95;;;2.65;;
18144;SDS011;14857;41.200;-8.326;2022-11-12T09:23:57;4.38;;;2.85;;
18144;SDS011;14857;41.200;-8.326;2022-11-12T09:26:46;5.20;;;2.95;;
18144;SDS011;14857;41.200;-8.326;2022-11-12T09:29:33;6.15;;;2.65;;
18144;SDS011;14857;41.200;-8.326;2022-11-12T09:32:20;7.60;;;2.83;;
18144;SDS011;14857;41.200;-8.326;2022-11-12T09:35:07;6.85;;;2.92;;
18144;SDS011;14857;41.200;-8.326;2022-11-12T09:37:57;5.28;;;2.70;;
18144;SDS011;14857;41.200;-8.326;2022-11-12T09:40:47;4.85;;;3.00;;
18144;SDS011;14857;41.200;-8.326;2022-11-12T09:43:57;5.65;;;3.40;;
18144;SDS011;14857;41.200;-8.326;2022-11-12T09:46:48;6.10;;;3.30;;
18144;SDS011;14857;41.200;-8.326;2022-11-12T09:49:42;9.70;;;3.75;;
18144;SDS011;14857;41.200;-8.326;2022-11-12T09:52:35;6.25;;;3.33;;
18144;SDS011;14857;41.200;-8.326;2022-11-12T09:55:27;4.75;;;3.05;;
18144;SDS011;14857;41.200;-8.326;2022-11-12T09:58:19;6.10;;;3.17;;
18144;SDS011;14857;41.200;-8.326;2022-11-12T10:01:10;5.53;;;3.40;;
18144;SDS011;14857;41.200;-8.326;2022-11-12T10:04:04;9.30;;;3.30;;
18144;SDS011;14857;41.200;-8.326;2022-11-12T10:07:05;6.68;;;3.33;;
18144;SDS011;14857;41.200;-8.326;2022-11-12T10:10:00;5.35;;;3.05;;
18144;SDS011;14857;41.200;-8.326;2022-11-12T10:12:55;6.43;;;3.70;;
18144;SDS011;14857;41.200;-8.326;2022-11-12T10:16:15;5.97;;;3.55;;
18144;SDS011;14857;41.200;-8.326;2022-11-12T10:22:46;9.57;;;4.30;;
18144;SDS011;14857;41.200;-8.326;2022-11-12T10:25:47;8.40;;;3.65;;
18144;SDS011;14857;41.200;-8.326;2022-11-12T10:28:37;7.72;;;4.25;;
18144;SDS011;14857;41.200;-8.326;2022-11-12T10:31:30;10.90;;;3.53;;
18144;SDS011;14857;41.200;-8.326;2022-11-12T10:34:18;10.18;;;4.15;;
18144;SDS011;14857;41.200;-8.326;2022-11-12T10:37:09;6.10;;;3.50;;
18144;SDS011;14857;41.200;-8.326;2022-11-12T10:39:59;5.78;;;3.15;;
18144;SDS011;14857;41.200;-8.326;2022-11-12T10:43:19;9.88;;;3.85;;
18144;SDS011;14857;41.200;-8.326;2022-11-12T10:46:12;9.02;;;5.13;;
18144;SDS011;14857;41.200;-8.326;2022-11-12T10:49:05;7.82;;;4.13;;
18144;SDS011;14857;41.200;-8.326;2022-11-12T10:52:18;9.00;;;4.63;;
18144;SDS011;14857;41.200;-8.326;2022-11-12T10:55:13;11.23;;;4.40;;
18144;SDS011;14857;41.200;-8.326;2022-11-12T10:58:06;6.43;;;4.03;;
18144;SDS011;14857;41.200;-8.326;2022-11-12T11:01:01;9.43;;;4.38;;
18144;SDS011;14857;41.200;-8.326;2022-11-12T11:03:52;10.02;;;4.63;;
18144;SDS011;14857;41.200;-8.326;2022-11-12T11:06:44;8.27;;;4.10;;
18144;SDS011;14857;41.200;-8.326;2022-11-12T11:09:31;11.32;;;4.82;;
18144;SDS011;14857;41.200;-8.326;2022-11-12T11:12:23;8.38;;;4.20;;
18144;SDS011;14857;41.200;-8.326;2022-11-12T11:15:17;5.75;;;3.88;;
18144;SDS011;14857;41.200;-8.326;2022-11-12T11:18:07;8.13;;;4.88;;
18144;SDS011;14857;41.200;-8.326;2022-11-12T11:21:00;8.15;;;3.88;;
18144;SDS011;14857;41.200;-8.326;2022-11-12T11:23:56;9.50;;;4.70;;
18144;SDS011;14857;41.200;-8.326;2022-11-12T11:26:53;9.45;;;4.70;;
18144;SDS011;14857;41.200;-8.326;2022-11-12T11:29:48;10.88;;;4.25;;
18144;SDS011;14857;41.200;-8.326;2022-11-12T11:36:10;11.30;;;4.15;;
18144;SDS011;14857;41.200;-8.326;2022-11-12T11:39:08;7.33;;;4.70;;
18144;SDS011;14857;41.200;-8.326;2022-11-12T11:42:09;8.60;;;5.00;;
18144;SDS011;14857;41.200;-8.326;2022-11-12T11:45:14;10.55;;;5.05;;
18144;SDS011;14857;41.200;-8.326;2022-11-12T11:48:05;12.93;;;5.55;;
18144;SDS011;14857;41.200;-8.326;2022-11-12T11:51:01;9.15;;;4.72;;
18144;SDS011;14857;41.200;-8.326;2022-11-12T11:54:00;8.82;;;4.75;;
18144;SDS011;14857;41.200;-8.326;2022-11-12T11:57:00;9.35;;;5.30;;
18144;SDS011;14857;41.200;-8.326;2022-11-12T12:00:04;11.75;;;5.28;;
18144;SDS011;14857;41.200;-8.326;2022-11-12T12:03:07;8.45;;;4.65;;
18144;SDS011;14857;41.200;-8.326;2022-11-12T12:06:08;14.38;;;5.60;;
18144;SDS011;14857;41.200;-8.326;2022-11-12T12:09:12;11.57;;;5.82;;
18144;SDS011;14857;41.200;-8.326;2022-11-12T12:12:13;11.77;;;6.25;;
18144;SDS011;14857;41.200;-8.326;2022-11-12T12:15:24;10.48;;;6.30;;
18144;SDS011;14857;41.200;-8.326;2022-11-12T12:18:27;15.82;;;6.75;;
18144;SDS011;14857;41.200;-8.326;2022-11-12T12:21:26;9.40;;;5.40;;
18144;SDS011;14857;41.200;-8.326;2022-11-12T12:24:21;12.75;;;5.70;;
18144;SDS011;14857;41.200;-8.326;2022-11-12T12:27:13;13.15;;;6.05;;
18144;SDS011;14857;41.200;-8.326;2022-11-12T12:30:05;8.95;;;4.72;;
18144;SDS011;14857;41.200;-8.326;2022-11-12T12:33:01;10.48;;;5.63;;
18144;SDS011;14857;41.200;-8.326;2022-11-12T12:35:57;8.93;;;5.10;;
18144;SDS011;14857;41.200;-8.326;2022-11-12T12:38:47;12.45;;;5.50;;
18144;SDS011;14857;41.200;-8.326;2022-11-12T12:41:41;18.90;;;6.50;;
18144;SDS011;14857;41.200;-8.326;2022-11-12T12:44:39;14.07;;;6.10;;
18144;SDS011;14857;41.200;-8.326;2022-11-12T12:47:49;13.45;;;5.90;;
18144;SDS011;14857;41.200;-8.326;2022-11-12T12:50:39;14.93;;;6.63;;
18144;SDS011;14857;41.200;-8.326;2022-11-12T12:53:31;7.47;;;4.60;;
18144;SDS011;14857;41.200;-8.326;2022-11-12T12:59:31;10.57;;;4.88;;
18144;SDS011;14857;41.200;-8.326;2022-11-12T13:02:19;12.57;;;4.85;;
18144;SDS011;14857;41.200;-8.326;2022-11-12T13:05:21;12.10;;;5.43;;
18144;SDS011;14857;41.200;-8.326;2022-11-12T13:08:10;13.48;;;5.32;;
18144;SDS011;14857;41.200;-8.326;2022-11-12T13:11:00;10.30;;;5.10;;
18144;SDS011;14857;41.200;-8.326;2022-11-12T13:13:49;10.55;;;5.13;;
18144;SDS011;14857;41.200;-8.326;2022-11-12T13:19:45;10.93;;;4.78;;
18144;SDS011;14857;41.200;-8.326;2022-11-12T13:22:53;9.05;;;4.40;;
18144;SDS011;14857;41.200;-8.326;2022-11-12T13:25:40;14.35;;;4.57;;
18144;SDS011;14857;41.200;-8.326;2022-11-12T13:28:28;13.57;;;4.45;;
18144;SDS011;14857;41.200;-8.326;2022-11-12T13:31:26;10.77;;;5.10;;
18144;SDS011;14857;41.200;-8.326;2022-11-12T13:34:18;12.02;;;4.78;;
18144;SDS011;14857;41.200;-8.326;2022-11-12T13:37:13;12.30;;;5.22;;
18144;SDS011;14857;41.200;-8.326;2022-11-12T13:40:07;10.55;;;4.93;;
18144;SDS011;14857;41.200;-8.326;2022-11-12T13:43:02;9.98;;;5.07;;
18144;SDS011;14857;41.200;-8.326;2022-11-12T13:45:52;13.02;;;4.78;;
18144;SDS011;14857;41.200;-8.326;2022-11-12T13:48:46;10.35;;;4.72;;
18144;SDS011;14857;41.200;-8.326;2022-11-12T13:51:41;10.00;;;4.90;;
18144;SDS011;14857;41.200;-8.326;2022-11-12T13:54:32;12.15;;;5.40;;
18144;SDS011;14857;41.200;-8.326;2022-11-12T13:57:27;11.57;;;4.80;;
18144;SDS011;14857;41.200;-8.326;2022-11-12T14:00:20;12.63;;;6.13;;
18144;SDS011;14857;41.200;-8.326;2022-11-12T14:03:13;11.45;;;5.35;;
18144;SDS011;14857;41.200;-8.326;2022-11-12T14:06:05;11.98;;;5.05;;
18144;SDS011;14857;41.200;-8.326;2022-11-12T14:12:13;13.13;;;5.65;;
18144;SDS011;14857;41.200;-8.326;2022-11-12T14:15:24;14.60;;;5.65;;
18144;SDS011;14857;41.200;-8.326;2022-11-12T14:18:29;13.55;;;5.00;;
18144;SDS011;14857;41.200;-8.326;2022-11-12T14:21:27;16.23;;;6.00;;
18144;SDS011;14857;41.200;-8.326;2022-11-12T14:24:15;16.33;;;5.47;;
18144;SDS011;14857;41.200;-8.326;2022-11-12T14:27:02;11.57;;;5.57;;
18144;SDS011;14857;41.200;-8.326;2022-11-12T14:30:03;11.35;;;4.85;;
18144;SDS011;14857;41.200;-8.326;2022-11-12T14:32:58;14.05;;;4.70;;
18144;SDS011;14857;41.200;-8.326;2022-11-12T14:35:53;8.07;;;4.07;;
18144;SDS011;14857;41.200;-8.326;2022-11-12T14:38:47;9.52;;;4.10;;
18144;SDS011;14857;41.200;-8.326;2022-11-12T14:41:37;14.75;;;4.35;;
18144;SDS011;14857;41.200;-8.326;2022-11-12T14:44:31;10.02;;;4.28;;
18144;SDS011;14857;41.200;-8.326;2022-11-12T14:47:21;11.32;;;4.97;;
18144;SDS011;14857;41.200;-8.326;2022-11-12T14:50:10;11.38;;;4.85;;
18144;SDS011;14857;41.200;-8.326;2022-11-12T14:53:02;9.00;;;4.20;;
18144;SDS011;14857;41.200;-8.326;2022-11-12T14:55:54;10.27;;;4.53;;
18144;SDS011;14857;41.200;-8.326;2022-11-12T14:58:42;9.90;;;4.95;;
18144;SDS011;14857;41.200;-8.326;2022-11-12T15:01:30;13.38;;;5.20;;
18144;SDS011;14857;41.200;-8.326;2022-11-12T15:04:40;10.70;;;4.78;;
18144;SDS011;14857;41.200;-8.326;2022-11-12T15:07:29;17.92;;;5.00;;
18144;SDS011;14857;41.200;-8.326;2022-11-12T15:10:31;13.85;;;5.47;;
18144;SDS011;14857;41.200;-8.326;2022-11-12T15:13:23;10.18;;;4.70;;
18144;SDS011;14857;41.200;-8.326;2022-11-12T15:16:16;9.95;;;4.97;;
18144;SDS011;14857;41.200;-8.326;2022-11-12T15:19:07;12.70;;;6.05;;
18144;SDS011;14857;41.200;-8.326;2022-11-12T15:22:03;11.10;;;4.93;;
18144;SDS011;14857;41.200;-8.326;2022-11-12T15:24:50;14.75;;;6.13;;
18144;SDS011;14857;41.200;-8.326;2022-11-12T15:27:38;14.60;;;5.65;;
18144;SDS011;14857;41.200;-8.326;2022-11-12T15:30:28;11.27;;;5.50;;
18144;SDS011;14857;41.200;-8.326;2022-11-12T15:33:20;13.75;;;6.10;;
18144;SDS011;14857;41.200;-8.326;2022-11-12T15:36:10;19.33;;;5.88;;
18144;SDS011;14857;41.200;-8.326;2022-11-12T15:39:02;19.20;;;6.25;;
18144;SDS011;14857;41.200;-8.326;2022-11-12T15:41:58;13.13;;;5.75;;
18144;SDS011;14857;41.200;-8.326;2022-11-12T15:44:47;15.45;;;6.85;;
18144;SDS011;14857;41.200;-8.326;2022-11-12T15:47:44;15.70;;;7.07;;
18144;SDS011;14857;41.200;-8.326;2022-11-12T15:50:32;16.58;;;6.72;;
18144;SDS011;14857;41.200;-8.326;2022-11-12T15:53:19;23.17;;;10.35;;
18144;SDS011;14857;41.200;-8.326;2022-11-12T15:56:07;25.25;;;11.38;;
18144;SDS011;14857;41.200;-8.326;2022-11-12T15:59:00;20.30;;;7.68;;
18144;SDS011;14857;41.200;-8.326;2022-11-12T16:01:48;18.45;;;6.85;;
18144;SDS011;14857;41.200;-8.326;2022-11-12T16:04:37;39.30;;;15.82;;
18144;SDS011;14857;41.200;-8.326;2022-11-12T16:07:24;37.55;;;15.23;;
18144;SDS011;14857;41.200;-8.326;2022-11-12T16:10:12;39.90;;;15.73;;
18144;SDS011;14857;41.200;-8.326;2022-11-12T16:13:00;23.70;;;10.60;;
18144;SDS011;14857;41.200;-8.326;2022-11-12T16:15:49;17.40;;;7.63;;
18144;SDS011;14857;41.200;-8.326;2022-11-12T16:18:37;15.85;;;7.03;;
18144;SDS011;14857;41.200;-8.326;2022-11-12T16:21:25;23.08;;;8.57;;
18144;SDS011;14857;41.200;-8.326;2022-11-12T16:24:12;17.00;;;8.60;;
18144;SDS011;14857;41.200;-8.326;2022-11-12T16:27:00;21.65;;;7.40;;
18144;SDS011;14857;41.200;-8.326;2022-11-12T16:29:49;23.13;;;7.85;;
18144;SDS011;14857;41.200;-8.326;2022-11-12T16:32:36;16.00;;;6.95;;
18144;SDS011;14857;41.200;-8.326;2022-11-12T16:35:23;14.50;;;6.45;;
18144;SDS011;14857;41.200;-8.326;2022-11-12T16:38:13;18.30;;;6.63;;
18144;SDS011;14857;41.200;-8.326;2022-11-12T16:41:02;17.75;;;6.35;;
18144;SDS011;14857;41.200;-8.326;2022-11-12T16:43:49;13.25;;;6.72;;
18144;SDS011;14857;41.200;-8.326;2022-11-12T16:46:37;16.20;;;6.55;;
18144;SDS011;14857;41.200;-8.326;2022-11-12T16:49:25;19.65;;;8.13;;
18144;SDS011;14857;41.200;-8.326;2022-11-12T16:52:12;18.30;;;7.93;;
18144;SDS011;14857;41.200;-8.326;2022-11-12T16:55:00;16.98;;;7.32;;
18144;SDS011;14857;41.200;-8.326;2022-11-12T16:57:49;18.52;;;6.38;;
18144;SDS011;14857;41.200;-8.326;2022-11-12T17:00:36;17.73;;;6.97;;
18144;SDS011;14857;41.200;-8.326;2022-11-12T17:03:23;19.13;;;7.07;;
18144;SDS011;14857;41.200;-8.326;2022-11-12T17:06:10;17.25;;;7.32;;